createdAt,value
2022-07-28T00:00:35.197Z,16.58
2022-07-28T00:03:42.024Z,16.62
2022-07-28T00:06:47.830Z,16.58
2022-07-28T00:09:58.241Z,16.56
2022-07-28T00:13:06.829Z,16.56
2022-07-28T00:16:12.987Z,16.48
2022-07-28T00:19:20.325Z,16.53
2022-07-28T00:22:25.854Z,16.50
2022-07-28T00:25:31.030Z,16.44
2022-07-28T00:28:36.788Z,16.45
2022-07-28T00:31:42.137Z,16.39
2022-07-28T00:34:49.129Z,16.43
2022-07-28T00:37:59.208Z,16.37
2022-07-28T00:41:14.329Z,16.36
2022-07-28T00:44:19.578Z,16.43
2022-07-28T00:47:24.922Z,16.46
2022-07-28T00:50:31.759Z,16.44
2022-07-28T00:53:37.313Z,16.32
2022-07-28T00:56:42.699Z,16.37
2022-07-28T00:59:47.929Z,16.33
2022-07-28T01:02:53.317Z,16.33
2022-07-28T01:06:11.281Z,16.29
2022-07-28T01:09:39.715Z,16.29
2022-07-28T01:12:52.480Z,16.19
2022-07-28T01:16:03.127Z,16.18
2022-07-28T01:19:18.713Z,16.24
2022-07-28T01:22:29.345Z,16.14
2022-07-28T01:25:48.178Z,16.22
2022-07-28T01:29:08.253Z,16.17
2022-07-28T01:32:20.813Z,16.14
2022-07-28T01:35:30.417Z,16.15
2022-07-28T01:38:37.257Z,16.05
2022-07-28T01:41:44.478Z,16.02
2022-07-28T01:44:51.998Z,16.00
2022-07-28T01:48:01.607Z,16.06
2022-07-28T01:51:08.853Z,15.93
2022-07-28T01:54:14.610Z,16.00
2022-07-28T01:57:21.492Z,15.92
2022-07-28T02:00:28.032Z,15.95
2022-07-28T02:03:35.843Z,15.90
2022-07-28T02:06:43.768Z,15.86
2022-07-28T02:09:49.760Z,15.83
2022-07-28T02:12:56.685Z,15.88
2022-07-28T02:16:04.023Z,15.83
2022-07-28T02:19:10.876Z,15.81
2022-07-28T02:22:19.037Z,15.78
2022-07-28T02:25:24.361Z,15.69
2022-07-28T02:28:30.023Z,15.59
2022-07-28T02:31:42.217Z,15.50
2022-07-28T02:34:51.077Z,15.57
2022-07-28T02:38:03.133Z,15.63
2022-07-28T02:41:13.725Z,15.58
2022-07-28T02:44:22.925Z,15.61
2022-07-28T02:47:30.265Z,15.62
2022-07-28T02:50:36.828Z,15.59
2022-07-28T02:53:42.136Z,15.51
2022-07-28T02:56:53.123Z,15.54
2022-07-28T02:59:59.185Z,15.45
2022-07-28T03:03:04.854Z,15.33
2022-07-28T03:06:12.765Z,15.38
2022-07-28T03:09:18.132Z,15.42
2022-07-28T03:12:23.459Z,15.34
2022-07-28T03:15:28.867Z,15.32
2022-07-28T03:18:34.665Z,15.38
2022-07-28T03:21:41.985Z,15.35
2022-07-28T03:24:51.768Z,15.35
2022-07-28T03:27:58.276Z,15.19
2022-07-28T03:31:08.669Z,15.31
2022-07-28T03:34:14.486Z,15.24
2022-07-28T03:37:27.556Z,15.32
2022-07-28T03:40:33.849Z,15.25
2022-07-28T03:43:39.766Z,15.28
2022-07-28T03:46:45.977Z,15.20
2022-07-28T03:49:51.426Z,15.24
2022-07-28T03:52:59.544Z,15.26
2022-07-28T03:56:05.733Z,15.26
2022-07-28T03:59:11.996Z,15.20
2022-07-28T04:02:17.196Z,15.24
2022-07-28T04:05:22.715Z,15.28
2022-07-28T04:08:29.633Z,15.31
2022-07-28T04:11:34.835Z,15.29
2022-07-28T04:14:40.145Z,15.32
2022-07-28T04:17:46.014Z,15.41
2022-07-28T04:20:51.197Z,15.32
2022-07-28T04:24:01.843Z,15.33
2022-07-28T04:27:08.013Z,15.30
2022-07-28T04:30:17.594Z,15.33
2022-07-28T04:33:22.969Z,15.32
2022-07-28T04:36:28.106Z,15.38
2022-07-28T04:39:35.316Z,15.35
2022-07-28T04:42:41.208Z,15.50
2022-07-28T04:45:53.545Z,15.44
2022-07-28T04:48:59.666Z,15.46
2022-07-28T04:52:05.795Z,15.41
2022-07-28T04:55:12.295Z,15.47
2022-07-28T04:58:36.692Z,15.53
2022-07-28T05:01:43.423Z,15.49
2022-07-28T05:04:48.755Z,15.54
2022-07-28T05:07:54.597Z,15.37
2022-07-28T05:11:01.247Z,15.48
2022-07-28T05:14:06.726Z,15.44
2022-07-28T05:17:17.705Z,15.46
2022-07-28T05:20:22.961Z,15.37
2022-07-28T05:23:28.752Z,15.34
2022-07-28T05:26:35.310Z,15.20
2022-07-28T05:29:46.765Z,15.23
2022-07-28T05:32:53.983Z,15.13
2022-07-28T05:35:59.457Z,15.14
2022-07-28T05:39:05.031Z,15.11
2022-07-28T05:42:12.780Z,15.01
2022-07-28T05:45:18.094Z,15.21
2022-07-28T05:48:23.808Z,15.36
2022-07-28T05:51:28.976Z,15.20
2022-07-28T05:54:33.866Z,15.40
2022-07-28T05:57:41.438Z,15.32
2022-07-28T06:00:46.738Z,15.33
2022-07-28T06:04:09.969Z,15.42
2022-07-28T06:07:15.626Z,15.46
2022-07-28T06:10:24.890Z,15.41
2022-07-28T06:13:31.834Z,15.71
2022-07-28T06:16:37.210Z,15.74
2022-07-28T06:19:42.446Z,15.93
2022-07-28T06:22:49.675Z,16.10
2022-07-28T06:25:55.932Z,16.29
2022-07-28T06:29:02.395Z,16.45
2022-07-28T06:32:07.943Z,16.56
2022-07-28T06:35:14.885Z,16.59
2022-07-28T06:38:20.810Z,16.54
2022-07-28T06:41:27.159Z,16.68
2022-07-28T06:44:57.439Z,16.66
2022-07-28T06:47:59.045Z,16.70
2022-07-28T06:51:04.325Z,16.95
2022-07-28T06:54:11.534Z,16.84
2022-07-28T06:57:16.987Z,17.13
2022-07-28T07:00:23.724Z,17.17
2022-07-28T07:03:29.093Z,16.78
2022-07-28T07:06:34.172Z,17.06
2022-07-28T07:09:40.095Z,17.07
2022-07-28T07:12:45.235Z,17.14
2022-07-28T07:15:51.964Z,17.20
2022-07-28T07:18:57.294Z,17.16
2022-07-28T07:22:02.796Z,17.35
2022-07-28T07:25:11.710Z,17.44
2022-07-28T07:28:17.139Z,17.55
2022-07-28T07:31:30.037Z,17.42
2022-07-28T07:34:35.637Z,17.70
2022-07-28T07:37:40.937Z,17.76
2022-07-28T07:40:46.305Z,17.85
2022-07-28T07:43:51.513Z,17.76
2022-07-28T07:46:58.055Z,17.70
2022-07-28T07:50:04.609Z,17.77
2022-07-28T07:53:12.639Z,17.70
2022-07-28T07:56:18.494Z,17.88
2022-07-28T07:59:23.650Z,18.10
2022-07-28T08:02:30.400Z,18.14
2022-07-28T08:05:36.473Z,18.05
2022-07-28T08:08:46.436Z,17.74
2022-07-28T08:11:53.636Z,17.88
2022-07-28T08:14:58.806Z,17.93
2022-07-28T08:18:06.010Z,18.05
2022-07-28T08:21:14.999Z,18.02
2022-07-28T08:24:33.013Z,18.10
2022-07-28T08:27:39.286Z,18.19
2022-07-28T08:30:44.808Z,18.02
2022-07-28T08:33:53.709Z,18.04
2022-07-28T08:36:59.919Z,17.92
2022-07-28T08:40:06.866Z,18.16
2022-07-28T08:43:24.891Z,18.09
2022-07-28T08:46:36.155Z,18.20
2022-07-28T08:49:44.185Z,18.17
2022-07-28T08:52:52.189Z,18.22
2022-07-28T08:56:03.536Z,17.86
2022-07-28T08:59:09.311Z,17.88
2022-07-28T09:02:15.333Z,17.85
2022-07-28T09:05:23.812Z,17.76
2022-07-28T09:08:29.042Z,17.82
2022-07-28T09:11:34.134Z,17.86
2022-07-28T09:14:39.357Z,17.84
2022-07-28T09:17:44.985Z,17.91
2022-07-28T09:20:51.856Z,17.93
2022-07-28T09:23:57.090Z,18.13
2022-07-28T09:27:06.787Z,18.30
2022-07-28T09:30:14.025Z,18.17
2022-07-28T09:33:43.047Z,18.18
2022-07-28T09:36:48.938Z,17.85
2022-07-28T09:39:59.057Z,17.97
2022-07-28T09:43:05.764Z,18.20
2022-07-28T09:46:13.360Z,18.27
2022-07-28T09:49:18.981Z,18.27
2022-07-28T09:52:33.285Z,18.37
2022-07-28T09:55:56.589Z,18.22
2022-07-28T09:59:03.577Z,18.37
2022-07-28T10:02:09.517Z,18.25
2022-07-28T10:05:16.875Z,18.47
2022-07-28T10:08:44.295Z,18.50
2022-07-28T10:11:49.858Z,18.52
2022-07-28T10:14:56.993Z,18.50
2022-07-28T10:18:02.196Z,18.61
2022-07-28T10:21:10.916Z,18.77
2022-07-28T10:24:23.596Z,18.74
2022-07-28T10:27:29.900Z,18.52
2022-07-28T10:30:41.356Z,18.64
2022-07-28T10:33:51.786Z,18.74
2022-07-28T10:36:57.685Z,18.74
2022-07-28T10:40:10.303Z,18.85
2022-07-28T10:43:16.789Z,18.84
2022-07-28T10:46:22.420Z,18.87
2022-07-28T10:49:32.563Z,18.85
2022-07-28T10:52:49.913Z,18.81
2022-07-28T10:56:04.943Z,18.83
2022-07-28T10:59:31.621Z,19.13
2022-07-28T11:02:52.496Z,19.16
2022-07-28T11:05:58.689Z,19.07
2022-07-28T11:09:25.423Z,18.96
2022-07-28T11:12:52.421Z,18.95
2022-07-28T11:16:00.602Z,19.15
2022-07-28T11:19:36.039Z,19.28
2022-07-28T11:22:34.219Z,19.30
2022-07-28T11:25:40.020Z,19.25
2022-07-28T11:29:20.978Z,19.15
2022-07-28T11:32:26.510Z,19.10
2022-07-28T11:35:48.512Z,19.02
2022-07-28T11:39:24.353Z,18.99
2022-07-28T11:42:32.426Z,18.93
2022-07-28T11:45:44.403Z,18.86
2022-07-28T11:49:26.012Z,19.21
2022-07-28T11:52:31.206Z,19.00
2022-07-28T11:55:49.154Z,19.10
2022-07-28T11:59:04.349Z,19.10
2022-07-28T12:02:11.444Z,19.25
2022-07-28T12:05:17.984Z,19.36
2022-07-28T12:08:24.033Z,19.37
2022-07-28T12:11:33.968Z,19.47
2022-07-28T12:14:43.505Z,19.55
2022-07-28T12:17:51.389Z,19.61
2022-07-28T12:21:00.535Z,19.84
2022-07-28T12:24:11.387Z,19.85
2022-07-28T12:27:17.047Z,19.79
2022-07-28T12:30:27.949Z,19.66
2022-07-28T12:33:35.444Z,19.72
2022-07-28T12:36:40.890Z,19.81
2022-07-28T12:39:52.712Z,19.80
2022-07-28T12:42:57.813Z,19.94
2022-07-28T12:46:03.606Z,19.65
2022-07-28T12:49:22.781Z,19.71
2022-07-28T12:52:28.083Z,19.67
2022-07-28T12:55:33.233Z,19.53
2022-07-28T12:58:38.505Z,19.75
2022-07-28T13:01:51.946Z,19.91
2022-07-28T13:04:58.484Z,20.17
2022-07-28T13:08:06.361Z,20.36
2022-07-28T13:11:42.671Z,20.33
2022-07-28T13:14:41.030Z,20.05
2022-07-28T13:17:55.053Z,19.94
2022-07-28T13:21:01.517Z,20.01
2022-07-28T13:24:07.823Z,19.99
2022-07-28T13:27:13.778Z,20.26
2022-07-28T13:30:19.621Z,20.27
2022-07-28T13:33:26.823Z,20.14
2022-07-28T13:36:35.176Z,20.50
2022-07-28T13:39:40.822Z,20.60
2022-07-28T13:42:52.717Z,20.80
2022-07-28T13:46:00.180Z,22.59
2022-07-28T13:49:05.586Z,22.10
2022-07-28T13:52:33.286Z,21.76
2022-07-28T13:55:40.618Z,21.50
2022-07-28T13:58:45.727Z,21.04
2022-07-28T14:01:50.858Z,20.86
2022-07-28T14:04:56.480Z,20.61
2022-07-28T14:08:03.684Z,20.53
2022-07-28T14:11:09.564Z,20.86
2022-07-28T14:14:16.987Z,20.70
2022-07-28T14:17:43.254Z,20.59
2022-07-28T14:20:50.356Z,20.34
2022-07-28T14:23:57.002Z,20.23
2022-07-28T14:27:02.338Z,20.04
2022-07-28T14:30:09.719Z,20.28
2022-07-28T14:33:17.169Z,20.65
2022-07-28T14:36:22.310Z,20.94
2022-07-28T14:39:28.990Z,21.04
2022-07-28T14:42:34.385Z,21.01
2022-07-28T14:46:00.540Z,21.04
2022-07-28T14:49:04.932Z,21.19
2022-07-28T14:52:11.969Z,21.08
2022-07-28T14:55:19.015Z,21.04
2022-07-28T14:58:24.272Z,22.25
2022-07-28T15:01:29.583Z,21.82
2022-07-28T15:04:41.665Z,21.85
2022-07-28T15:07:49.446Z,21.91
2022-07-28T15:10:57.786Z,21.91
2022-07-28T15:14:03.043Z,21.89
2022-07-28T15:17:08.297Z,22.08
2022-07-28T15:20:14.234Z,22.08
2022-07-28T15:23:19.817Z,21.71
2022-07-28T15:26:27.270Z,21.67
2022-07-28T15:29:35.656Z,21.75
2022-07-28T15:32:55.737Z,21.44
2022-07-28T15:36:02.292Z,21.36
2022-07-28T15:39:09.295Z,21.20
2022-07-28T15:42:15.995Z,21.26
2022-07-28T15:45:21.514Z,21.19
2022-07-28T15:48:27.227Z,20.86
2022-07-28T15:51:33.653Z,20.96
2022-07-28T15:54:38.841Z,20.94
2022-07-28T15:57:46.534Z,20.91
2022-07-28T16:00:52.376Z,20.83
2022-07-28T16:03:58.822Z,20.72
2022-07-28T16:07:23.455Z,20.61
2022-07-28T16:10:29.394Z,20.60
2022-07-28T16:13:37.606Z,20.58
2022-07-28T16:16:42.982Z,20.46
2022-07-28T16:19:50.245Z,20.52
2022-07-28T16:22:56.560Z,20.52
2022-07-28T16:26:01.741Z,20.39
2022-07-28T16:29:08.736Z,20.35
2022-07-28T16:32:13.977Z,20.30
2022-07-28T16:35:19.984Z,20.30
2022-07-28T16:38:25.778Z,20.24
2022-07-28T16:41:47.014Z,20.29
2022-07-28T16:44:54.882Z,20.15
2022-07-28T16:48:03.877Z,20.15
2022-07-28T16:51:11.574Z,20.28
2022-07-28T16:54:17.461Z,20.31
2022-07-28T16:57:23.628Z,20.34
2022-07-28T17:00:31.343Z,20.33
2022-07-28T17:03:37.142Z,20.25
2022-07-28T17:06:42.413Z,20.26
2022-07-28T17:09:47.549Z,19.88
2022-07-28T17:12:52.875Z,19.54
2022-07-28T17:15:59.910Z,19.30
2022-07-28T17:19:05.639Z,19.37
2022-07-28T17:22:11.424Z,19.39
2022-07-28T17:28:42.057Z,19.30
2022-07-28T17:31:49.881Z,19.11
2022-07-28T17:34:55.623Z,19.06
2022-07-28T17:38:01.038Z,18.96
2022-07-28T17:41:09.213Z,18.91
2022-07-28T17:44:15.285Z,18.76
2022-07-28T17:47:24.462Z,18.68
2022-07-28T17:50:42.429Z,18.89
2022-07-28T17:53:48.852Z,18.70
2022-07-28T17:56:56.791Z,18.63
2022-07-28T18:00:01.965Z,18.62
2022-07-28T18:03:18.969Z,18.69
2022-07-28T18:06:24.579Z,18.72
2022-07-28T18:09:30.023Z,18.68
2022-07-28T18:12:35.263Z,18.57
2022-07-28T18:15:42.638Z,18.72
2022-07-28T18:18:49.352Z,18.38
2022-07-28T18:21:54.667Z,18.41
2022-07-28T18:25:00.855Z,18.61
2022-07-28T18:28:08.959Z,18.46
2022-07-28T18:31:14.494Z,18.38
2022-07-28T18:34:23.510Z,18.37
2022-07-28T18:37:31.009Z,18.29
2022-07-28T18:40:36.828Z,18.28
2022-07-28T18:43:42.045Z,18.12
2022-07-28T18:46:47.633Z,18.21
2022-07-28T18:49:54.102Z,18.12
2022-07-28T18:52:59.430Z,18.13
2022-07-28T18:56:05.761Z,18.09
2022-07-28T18:59:10.980Z,18.04
2022-07-28T19:02:17.642Z,18.07
2022-07-28T19:05:24.898Z,18.07
2022-07-28T19:08:30.413Z,18.02
2022-07-28T19:11:35.544Z,17.96
2022-07-28T19:14:40.983Z,17.88
2022-07-28T19:17:46.473Z,17.76
2022-07-28T19:21:15.167Z,17.78
2022-07-28T19:24:20.910Z,17.64
2022-07-28T19:27:26.244Z,17.61
2022-07-28T19:30:36.310Z,17.68
2022-07-28T19:33:43.809Z,17.59
2022-07-28T19:36:53.002Z,17.49
2022-07-28T19:39:58.187Z,17.56
2022-07-28T19:43:03.461Z,17.50
2022-07-28T19:46:08.832Z,17.47
2022-07-28T19:49:16.998Z,17.34
2022-07-28T19:52:24.029Z,17.35
2022-07-28T19:55:32.362Z,17.32
2022-07-28T19:58:37.850Z,17.27
2022-07-28T20:01:46.873Z,17.35
2022-07-28T20:04:56.035Z,17.30
2022-07-28T20:08:02.958Z,17.25
2022-07-28T20:11:08.782Z,17.24
2022-07-28T20:14:14.097Z,17.24
2022-07-28T20:17:37.052Z,17.06
2022-07-28T20:20:42.982Z,17.08
2022-07-28T20:23:49.545Z,17.09
2022-07-28T20:26:54.660Z,17.07
2022-07-28T20:29:59.905Z,17.08
2022-07-28T20:33:06.204Z,17.01
2022-07-28T20:36:13.104Z,16.90
2022-07-28T20:39:43.271Z,16.90
2022-07-28T20:42:47.547Z,16.76
2022-07-28T20:45:56.464Z,16.78
2022-07-28T20:49:02.174Z,16.77
2022-07-28T20:52:07.868Z,16.74
2022-07-28T20:55:14.501Z,16.74
2022-07-28T20:58:19.863Z,16.77
2022-07-28T21:01:26.251Z,16.68
2022-07-28T21:04:32.118Z,16.70
2022-07-28T21:08:05.433Z,16.62
2022-07-28T21:11:05.370Z,16.55
2022-07-28T21:14:11.872Z,16.50
2022-07-28T21:17:16.996Z,16.46
2022-07-28T21:20:22.175Z,16.47
2022-07-28T21:23:27.538Z,16.46
2022-07-28T21:26:34.040Z,16.30
2022-07-28T21:29:38.417Z,16.35
2022-07-28T21:32:43.522Z,16.31
2022-07-28T21:35:49.438Z,16.35
2022-07-28T21:38:54.792Z,16.28
2022-07-28T21:42:04.701Z,16.24
2022-07-28T21:45:13.242Z,16.26
2022-07-28T21:48:20.157Z,16.21
2022-07-28T21:51:26.468Z,16.14
2022-07-28T21:54:31.735Z,16.17
2022-07-28T21:57:38.433Z,16.09
2022-07-28T22:00:44.389Z,16.10
2022-07-28T22:03:50.082Z,16.02
2022-07-28T22:06:55.140Z,16.01
2022-07-28T22:10:00.625Z,16.03
2022-07-28T22:13:07.374Z,16.01
2022-07-28T22:16:12.849Z,16.03
2022-07-28T22:19:18.175Z,16.04
2022-07-28T22:22:23.351Z,16.05
2022-07-28T22:25:28.888Z,15.94
2022-07-28T22:28:35.697Z,15.93
2022-07-28T22:31:42.264Z,15.93
2022-07-28T22:34:47.573Z,15.87
2022-07-28T22:37:53.000Z,15.79
2022-07-28T22:40:58.676Z,15.70
2022-07-28T22:44:05.279Z,15.73
2022-07-28T22:47:11.567Z,15.73
2022-07-28T22:50:17.105Z,15.79
2022-07-28T22:53:22.485Z,15.81
2022-07-28T22:56:28.039Z,15.78
2022-07-28T22:59:51.006Z,15.65
2022-07-28T23:02:56.897Z,15.67
2022-07-28T23:06:03.031Z,15.61
2022-07-28T23:09:08.432Z,15.50
2022-07-28T23:12:15.180Z,15.59
2022-07-28T23:15:22.144Z,15.48
2022-07-28T23:18:27.576Z,15.48
2022-07-28T23:21:32.717Z,15.47
2022-07-28T23:24:38.008Z,15.48
2022-07-28T23:27:43.209Z,15.32
2022-07-28T23:30:52.092Z,15.38
2022-07-28T23:33:57.740Z,15.35
2022-07-28T23:37:03.378Z,15.30
2022-07-28T23:40:10.609Z,15.41
2022-07-28T23:43:16.981Z,15.34
2022-07-28T23:46:23.818Z,15.31
2022-07-28T23:49:29.137Z,15.24
2022-07-28T23:52:34.519Z,15.19
2022-07-28T23:55:39.748Z,15.17
2022-07-28T23:58:45.046Z,15.20
